logo
Rechercher aéroport 
image banner adimage banner adimage banner ad
image banner ad

BIHI - Hveravellir

Situé à Hveravellir, Iceland

ICAO - BIHI, IATA -

Données fournies par Airmate  

Information générale

Coordonnées: N64°53'10" W19°29'33"
Élévation : 2019 feet MSL.
 
Voir autres Aéroports à Northwest

Données opérationnelles

Special qualification required
Heure actuelle UTC:
Heure actuelle locale:
Météo à : - ( 0 km )
METAR: CYQA 251741Z AUTO 00000KT 2 1/2SM +RA BR BKN024 BKN032 OVC048 13/12 A2984 RMK PCPN 3.8MM PAST HR SLP111
Voir NOTAMs / SUP AIP / TFR affectant cet aéroport [VIEW]
Fréquences de communication: [VIEW]

Pistes:

Identifiant RWYQFULongueur (ft)Largeur (ft)SurfaceLDA (ft)
172690125GRAVE
352690125GRAVE

Coordonnées de l'aéroport

Adresse: Hveravellir Iceland

Vue satellite de BIHI